Time;durP1;ratioP1;P1;durP2;ratioP2;P2;SDS_P1;SDS_P2;PMS_P1;PMS_P2;Temp;Humidity;BMP_temperature;BMP_pressure;BME280_temperature;BME280_humidity;BME280_pressure;Samples;Min_cycle;Max_cycle;Signal;HPM_P1;HPM_P2
2023/01/11 00:02:47;;;;;;;34.50;20.40;;;;;;;-128.00;-1.00;-1.00;263408;1279;1002698;-84
2023/01/11 00:09:00;;;;;;;33.20;19.30;;;;;;;-128.00;-1.00;-1.00;263222;1279;1002415;-85
2023/01/11 00:15:10;;;;;;;33.50;18.30;;;;;;;-128.00;-1.00;-1.00;263448;1279;1002534;-85
2023/01/11 00:21:25;;;;;;;29.80;17.10;;;;;;;-128.00;-1.00;-1.00;263461;1279;1003510;-86
2023/01/11 00:27:34;;;;;;;27.00;16.30;;;;;;;-128.00;-1.00;-1.00;263547;1279;1003032;-87
2023/01/11 00:33:42;;;;;;;27.80;15.80;;;;;;;-128.00;-1.00;-1.00;263544;1272;1002524;-88
2023/01/11 00:39:55;;;;;;;29.30;15.90;;;;;;;-128.00;-1.00;-1.00;263594;1279;1002230;-87
2023/01/11 00:52:28;;;;;;;25.30;14.30;;;;;;;-128.00;-1.00;-1.00;263865;1257;1002845;-90
2023/01/11 00:58:38;;;;;;;25.20;14.40;;;;;;;-128.00;-1.00;-1.00;263484;1279;1002665;-88
2023/01/11 01:04:43;;;;;;;28.20;15.30;;;;;;;-128.00;-1.00;-1.00;263271;1279;1003644;-89
2023/01/11 01:10:50;;;;;;;26.80;15.40;;;;;;;-128.00;-1.00;-1.00;264757;1273;1002545;-88
2023/01/11 01:17:02;;;;;;;27.20;15.40;;;;;;;-128.00;-1.00;-1.00;263577;1280;1002596;-88
2023/01/11 01:23:17;;;;;;;27.80;15.10;;;;;;;-128.00;-1.00;-1.00;264131;1275;1003757;-90
2023/01/11 01:29:24;;;;;;;26.90;15.00;;;;;;;-128.00;-1.00;-1.00;264023;1279;1002996;-88
2023/01/11 01:35:36;;;;;;;25.70;14.20;;;;;;;-128.00;-1.00;-1.00;264369;1279;1003198;-90
2023/01/11 01:41:39;;;;;;;25.40;14.70;;;;;;;-128.00;-1.00;-1.00;264602;1279;1002710;-90
2023/01/11 01:47:53;;;;;;;27.30;15.40;;;;;;;-128.00;-1.00;-1.00;264083;1279;1003960;-89
2023/01/11 01:53:58;;;;;;;27.10;15.30;;;;;;;-128.00;-1.00;-1.00;263576;1273;1002147;-85
2023/01/11 02:00:04;;;;;;;25.90;15.00;;;;;;;-128.00;-1.00;-1.00;263376;1279;1002886;-87
2023/01/11 02:06:09;;;;;;;26.00;14.70;;;;;;;-128.00;-1.00;-1.00;263865;1279;1002662;-88
2023/01/11 02:12:13;;;;;;;28.40;15.00;;;;;;;-128.00;-1.00;-1.00;263487;1279;1002659;-89
2023/01/11 02:18:18;;;;;;;24.60;14.10;;;;;;;-128.00;-1.00;-1.00;263645;1279;1002521;-89
2023/01/11 02:24:30;;;;;;;25.70;15.30;;;;;;;-128.00;-1.00;-1.00;263383;1279;1002136;-89
2023/01/11 02:31:04;;;;;;;26.10;15.10;;;;;;;-128.00;-1.00;-1.00;263888;1279;1004014;-89
2023/01/11 02:37:22;;;;;;;27.20;15.50;;;;;;;-128.00;-1.00;-1.00;263911;1279;1002986;-88
2023/01/11 02:50:49;;;;;;;25.90;14.40;;;;;;;-128.00;-1.00;-1.00;263614;1273;1004889;-86
2023/01/11 02:56:56;;;;;;;24.80;14.40;;;;;;;-128.00;-1.00;-1.00;263356;1276;1002733;-84
2023/01/11 03:03:18;;;;;;;26.50;14.70;;;;;;;-128.00;-1.00;-1.00;263469;1279;1002526;-85
2023/01/11 03:09:29;;;;;;;26.60;15.60;;;;;;;-128.00;-1.00;-1.00;263633;1274;1002555;-86
2023/01/11 03:15:55;;;;;;;25.80;15.30;;;;;;;-128.00;-1.00;-1.00;263574;1273;1002968;-87
2023/01/11 03:22:38;;;;;;;29.30;16.30;;;;;;;-128.00;-1.00;-1.00;263629;1280;1002793;-88
2023/01/11 03:29:07;;;;;;;30.70;16.70;;;;;;;-128.00;-1.00;-1.00;262932;1279;1002541;-86
2023/01/11 03:35:36;;;;;;;29.90;17.10;;;;;;;-128.00;-1.00;-1.00;263646;1279;1002857;-87
2023/01/11 03:41:46;;;;;;;32.90;18.50;;;;;;;-128.00;-1.00;-1.00;263305;1279;1002559;-86
2023/01/11 03:47:52;;;;;;;40.80;21.80;;;;;;;-128.00;-1.00;-1.00;263518;1279;1002285;-87
2023/01/11 03:54:00;;;;;;;44.20;23.80;;;;;;;-128.00;-1.00;-1.00;263506;1274;1002939;-87
2023/01/11 04:00:05;;;;;;;45.00;26.40;;;;;;;-128.00;-1.00;-1.00;263696;1264;1002498;-90
2023/01/11 04:06:21;;;;;;;53.50;28.60;;;;;;;-128.00;-1.00;-1.00;264117;1279;1002472;-89
2023/01/11 04:12:39;;;;;;;49.50;25.60;;;;;;;-128.00;-1.00;-1.00;263787;1279;1002496;-87
2023/01/11 04:18:51;;;;;;;46.40;25.70;;;;;;;-128.00;-1.00;-1.00;263331;1279;1003038;-85
2023/01/11 04:24:59;;;;;;;45.30;26.90;;;;;;;-128.00;-1.00;-1.00;263368;1279;1005192;-87
2023/01/11 04:31:12;;;;;;;47.30;25.30;;;;;;;-128.00;-1.00;-1.00;263397;1279;1002716;-87
2023/01/11 04:37:18;;;;;;;43.40;23.40;;;;;;;-128.00;-1.00;-1.00;263806;1273;1003598;-90
2023/01/11 04:43:30;;;;;;;44.10;25.00;;;;;;;-128.00;-1.00;-1.00;264011;1279;1002473;-88
2023/01/11 04:49:46;;;;;;;42.40;24.30;;;;;;;-128.00;-1.00;-1.00;263689;1279;1002250;-88
2023/01/11 04:56:14;;;;;;;45.20;24.80;;;;;;;-128.00;-1.00;-1.00;263575;1279;1002552;-88
2023/01/11 05:02:20;;;;;;;44.70;24.90;;;;;;;-128.00;-1.00;-1.00;263616;1279;1002487;-88
2023/01/11 05:08:24;;;;;;;45.50;25.50;;;;;;;-128.00;-1.00;-1.00;263596;1279;1002539;-87
2023/01/11 05:14:36;;;;;;;44.30;23.80;;;;;;;-128.00;-1.00;-1.00;263624;1279;1002533;-87
2023/01/11 05:20:42;;;;;;;42.20;23.10;;;;;;;-128.00;-1.00;-1.00;263855;1279;1002689;-88
2023/01/11 05:26:57;;;;;;;44.30;24.40;;;;;;;-128.00;-1.00;-1.00;263841;1279;1002629;-88
2023/01/11 05:33:01;;;;;;;43.40;24.30;;;;;;;-128.00;-1.00;-1.00;263912;1279;1002610;-84
2023/01/11 05:39:07;;;;;;;40.80;23.20;;;;;;;-128.00;-1.00;-1.00;263907;1277;1002980;-87
2023/01/11 05:51:46;;;;;;;42.70;22.80;;;;;;;-128.00;-1.00;-1.00;263564;1279;1002609;-84
2023/01/11 05:58:02;;;;;;;38.40;22.90;;;;;;;-128.00;-1.00;-1.00;263617;1279;1004972;-91
2023/01/11 06:04:10;;;;;;;41.90;23.40;;;;;;;-128.00;-1.00;-1.00;263437;1274;1002538;-88
2023/01/11 06:10:15;;;;;;;38.30;21.60;;;;;;;-128.00;-1.00;-1.00;263519;1279;1002396;-82
2023/01/11 06:16:19;;;;;;;41.60;22.70;;;;;;;-128.00;-1.00;-1.00;262949;1273;1002863;-83
2023/01/11 06:22:28;;;;;;;41.40;22.60;;;;;;;-128.00;-1.00;-1.00;262981;1274;1002269;-84
2023/01/11 06:28:31;;;;;;;40.00;22.60;;;;;;;-128.00;-1.00;-1.00;262696;1279;1004815;-82
2023/01/11 06:34:34;;;;;;;42.50;23.10;;;;;;;-128.00;-1.00;-1.00;263347;1279;1003067;-84
2023/01/11 06:40:38;;;;;;;38.30;21.50;;;;;;;-128.00;-1.00;-1.00;263311;1272;1002981;-84
2023/01/11 06:46:41;;;;;;;34.10;20.80;;;;;;;-128.00;-1.00;-1.00;264724;1279;1002828;-83
2023/01/11 06:52:58;;;;;;;37.90;21.40;;;;;;;-128.00;-1.00;-1.00;265525;1279;1002886;-83
2023/01/11 06:59:04;;;;;;;39.60;21.70;;;;;;;-128.00;-1.00;-1.00;263810;1279;1002841;-85
2023/01/11 07:05:14;;;;;;;34.90;20.50;;;;;;;-128.00;-1.00;-1.00;263649;1277;1002368;-85
2023/01/11 07:11:20;;;;;;;40.20;22.10;;;;;;;-128.00;-1.00;-1.00;263896;1279;1002418;-85
2023/01/11 07:17:26;;;;;;;39.30;21.60;;;;;;;-128.00;-1.00;-1.00;263362;1279;1002541;-84
2023/01/11 07:23:29;;;;;;;46.10;23.90;;;;;;;-128.00;-1.00;-1.00;263340;1265;1002933;-85
2023/01/11 07:29:35;;;;;;;44.30;24.70;;;;;;;-128.00;-1.00;-1.00;263268;1276;1003029;-85
2023/01/11 07:35:57;;;;;;;43.80;23.30;;;;;;;-128.00;-1.00;-1.00;263050;1280;1002799;-87
2023/01/11 07:48:33;;;;;;;37.90;22.20;;;;;;;-128.00;-1.00;-1.00;263794;1274;1002714;-85
2023/01/11 07:54:39;;;;;;;44.70;23.80;;;;;;;-128.00;-1.00;-1.00;263986;1274;1002850;-84
2023/01/11 08:00:44;;;;;;;39.80;23.50;;;;;;;-128.00;-1.00;-1.00;263910;1279;1002347;-84
2023/01/11 08:06:50;;;;;;;38.80;21.80;;;;;;;-128.00;-1.00;-1.00;263920;1274;1002424;-85
2023/01/11 08:19:15;;;;;;;42.40;22.00;;;;;;;-128.00;-1.00;-1.00;264001;1273;1004718;-83
2023/01/11 08:25:21;;;;;;;40.80;21.60;;;;;;;-128.00;-1.00;-1.00;263944;1277;1004111;-83
2023/01/11 08:31:25;;;;;;;38.10;21.60;;;;;;;-128.00;-1.00;-1.00;264799;1273;1002516;-84
2023/01/11 08:37:28;;;;;;;36.10;20.10;;;;;;;-128.00;-1.00;-1.00;264294;1279;1002620;-83
2023/01/11 08:43:31;;;;;;;39.90;21.40;;;;;;;-128.00;-1.00;-1.00;263980;1280;1003516;-83
2023/01/11 08:49:44;;;;;;;40.40;22.20;;;;;;;-128.00;-1.00;-1.00;263672;1274;1002604;-85
2023/01/11 08:55:49;;;;;;;38.00;20.30;;;;;;;-128.00;-1.00;-1.00;263608;1279;1002577;-84
2023/01/11 09:01:56;;;;;;;31.60;16.90;;;;;;;-128.00;-1.00;-1.00;263464;1280;1002876;-85
2023/01/11 09:08:02;;;;;;;29.40;16.50;;;;;;;-128.00;-1.00;-1.00;263799;1273;1002573;-86
2023/01/11 09:14:05;;;;;;;31.30;18.00;;;;;;;-128.00;-1.00;-1.00;264302;1279;1002882;-86
2023/01/11 09:20:12;;;;;;;26.00;15.40;;;;;;;-128.00;-1.00;-1.00;263521;1279;1002642;-87
2023/01/11 09:26:15;;;;;;;29.80;17.10;;;;;;;-128.00;-1.00;-1.00;263759;1276;1002324;-83
2023/01/11 09:32:18;;;;;;;27.50;15.50;;;;;;;-128.00;-1.00;-1.00;262787;1279;1002664;-87
2023/01/11 09:38:25;;;;;;;23.60;13.60;;;;;;;-128.00;-1.00;-1.00;262739;1279;1004542;-87
2023/01/11 09:44:31;;;;;;;22.20;12.60;;;;;;;-128.00;-1.00;-1.00;263357;1276;1002834;-86
2023/01/11 09:50:40;;;;;;;23.30;13.50;;;;;;;-128.00;-1.00;-1.00;263694;1273;1002438;-84
2023/01/11 09:56:52;;;;;;;21.40;12.20;;;;;;;-128.00;-1.00;-1.00;263916;1273;1002285;-85
2023/01/11 10:03:17;;;;;;;23.60;13.20;;;;;;;-128.00;-1.00;-1.00;264312;1273;1002859;-85
2023/01/11 10:09:33;;;;;;;18.90;11.70;;;;;;;-128.00;-1.00;-1.00;264234;1274;1002560;-84
2023/01/11 10:16:23;;;;;;;18.80;11.00;;;;;;;-128.00;-1.00;-1.00;262698;1274;1003856;-83
2023/01/11 10:22:47;;;;;;;15.60;9.70;;;;;;;-128.00;-1.00;-1.00;263080;1274;1003018;-82
2023/01/11 10:29:21;;;;;;;16.50;10.20;;;;;;;-128.00;-1.00;-1.00;263034;1279;1004177;-81
2023/01/11 10:35:46;;;;;;;17.70;10.70;;;;;;;-128.00;-1.00;-1.00;263898;1279;1002692;-81
2023/01/11 10:41:59;;;;;;;16.30;9.90;;;;;;;-128.00;-1.00;-1.00;263799;1279;1002520;-82
2023/01/11 10:48:14;;;;;;;16.50;9.60;;;;;;;-128.00;-1.00;-1.00;262820;1274;1002441;-85
2023/01/11 10:54:32;;;;;;;16.30;9.90;;;;;;;-128.00;-1.00;-1.00;262679;1279;1002534;-88
2023/01/11 11:00:35;;;;;;;17.50;10.50;;;;;;;-128.00;-1.00;-1.00;263535;1277;1002810;-87
2023/01/11 11:06:49;;;;;;;17.60;9.80;;;;;;;-128.00;-1.00;-1.00;262911;1279;1002630;-86
2023/01/11 11:13:00;;;;;;;16.40;9.90;;;;;;;-128.00;-1.00;-1.00;262813;1277;1002546;-87
2023/01/11 11:19:03;;;;;;;17.60;10.50;;;;;;;-128.00;-1.00;-1.00;263681;1279;1002732;-86
2023/01/11 11:25:17;;;;;;;15.30;9.70;;;;;;;-128.00;-1.00;-1.00;263327;1279;1002574;-88
2023/01/11 11:31:20;;;;;;;16.50;9.20;;;;;;;-128.00;-1.00;-1.00;263476;1279;1002837;-87
2023/01/11 11:37:41;;;;;;;14.70;8.70;;;;;;;-128.00;-1.00;-1.00;262623;1279;1002412;-85
2023/01/11 11:43:47;;;;;;;13.70;8.30;;;;;;;-128.00;-1.00;-1.00;264185;1279;1002621;-84
2023/01/11 11:49:55;;;;;;;15.70;8.40;;;;;;;-128.00;-1.00;-1.00;263018;1279;1002660;-87
2023/01/11 11:55:58;;;;;;;11.10;6.90;;;;;;;-128.00;-1.00;-1.00;263904;1279;1002702;-82
2023/01/11 12:02:04;;;;;;;10.60;6.30;;;;;;;-128.00;-1.00;-1.00;264123;1279;1002894;-81
2023/01/11 12:08:13;;;;;;;9.30;5.80;;;;;;;-128.00;-1.00;-1.00;263550;1279;1003136;-86
2023/01/11 12:14:21;;;;;;;9.50;5.60;;;;;;;-128.00;-1.00;-1.00;262907;1274;1002790;-86
2023/01/11 12:20:29;;;;;;;7.10;5.00;;;;;;;-128.00;-1.00;-1.00;263047;1279;1003523;-84
2023/01/11 12:26:39;;;;;;;10.30;5.60;;;;;;;-128.00;-1.00;-1.00;262971;1277;1002820;-84
2023/01/11 12:33:11;;;;;;;7.40;5.40;;;;;;;-128.00;-1.00;-1.00;263274;1275;1002872;-84
2023/01/11 12:39:23;;;;;;;8.00;5.30;;;;;;;-128.00;-1.00;-1.00;262762;1280;1003607;-83
2023/01/11 12:46:00;;;;;;;8.10;4.90;;;;;;;-128.00;-1.00;-1.00;263098;1275;1002962;-84
2023/01/11 12:52:18;;;;;;;9.10;5.20;;;;;;;-128.00;-1.00;-1.00;263365;1272;1003454;-87
2023/01/11 12:58:30;;;;;;;8.40;4.50;;;;;;;-128.00;-1.00;-1.00;264009;1280;1002729;-85
2023/01/11 13:04:53;;;;;;;7.00;4.70;;;;;;;-128.00;-1.00;-1.00;263767;1277;1003328;-88
2023/01/11 13:11:35;;;;;;;9.20;4.80;;;;;;;-128.00;-1.00;-1.00;264106;1275;1004410;-86
2023/01/11 13:17:48;;;;;;;9.30;5.50;;;;;;;-128.00;-1.00;-1.00;264236;1279;1002556;-86
2023/01/11 13:23:56;;;;;;;9.10;5.30;;;;;;;-128.00;-1.00;-1.00;263948;1278;1002405;-87
2023/01/11 13:30:00;;;;;;;7.80;4.90;;;;;;;-128.00;-1.00;-1.00;264123;1279;1002775;-88
2023/01/11 13:36:13;;;;;;;9.40;5.60;;;;;;;-128.00;-1.00;-1.00;264269;1279;1002888;-89
2023/01/11 13:42:33;;;;;;;8.00;5.00;;;;;;;-128.00;-1.00;-1.00;263735;1279;1002512;-89
2023/01/11 13:48:43;;;;;;;12.10;5.30;;;;;;;-128.00;-1.00;-1.00;263966;1279;1003250;-88
2023/01/11 13:54:59;;;;;;;10.20;5.70;;;;;;;-128.00;-1.00;-1.00;263480;1279;1003230;-88
2023/01/11 14:01:07;;;;;;;8.60;5.60;;;;;;;-128.00;-1.00;-1.00;263409;1279;1003799;-87
2023/01/11 14:07:29;;;;;;;9.10;5.80;;;;;;;-128.00;-1.00;-1.00;262789;1279;1003513;-87
2023/01/11 14:14:13;;;;;;;10.80;6.10;;;;;;;-128.00;-1.00;-1.00;262529;1279;1002471;-89
2023/01/11 14:20:27;;;;;;;9.70;5.90;;;;;;;-128.00;-1.00;-1.00;262444;1279;1002959;-88
2023/01/11 14:26:50;;;;;;;10.30;5.90;;;;;;;-128.00;-1.00;-1.00;262413;1279;1002968;-88
2023/01/11 14:32:59;;;;;;;11.00;6.10;;;;;;;-128.00;-1.00;-1.00;263156;1279;1002639;-82
2023/01/11 14:39:33;;;;;;;10.30;5.80;;;;;;;-128.00;-1.00;-1.00;263522;1279;1002264;-83
2023/01/11 14:45:51;;;;;;;10.90;5.50;;;;;;;-128.00;-1.00;-1.00;263287;1276;1002846;-82
2023/01/11 14:52:06;;;;;;;9.50;5.80;;;;;;;-128.00;-1.00;-1.00;263575;1276;1002781;-82
2023/01/11 14:58:20;;;;;;;10.50;6.00;;;;;;;-128.00;-1.00;-1.00;263142;1277;1002977;-83
2023/01/11 15:04:31;;;;;;;11.30;5.90;;;;;;;-128.00;-1.00;-1.00;263702;1279;1002812;-82
2023/01/11 15:10:50;;;;;;;9.60;5.20;;;;;;;-128.00;-1.00;-1.00;263436;1279;1002412;-80
2023/01/11 15:23:24;;;;;;;9.60;5.70;;;;;;;-128.00;-1.00;-1.00;264014;1276;1002427;-82
2023/01/11 15:29:35;;;;;;;12.60;5.60;;;;;;;-128.00;-1.00;-1.00;263969;1259;1004628;-82
2023/01/11 15:35:54;;;;;;;10.70;6.20;;;;;;;-128.00;-1.00;-1.00;264527;1279;1003245;-88
2023/01/11 15:42:28;;;;;;;12.10;6.10;;;;;;;-128.00;-1.00;-1.00;264288;1279;1002791;-90
2023/01/11 15:49:06;;;;;;;10.20;6.00;;;;;;;-128.00;-1.00;-1.00;264350;1273;1004859;-86
2023/01/11 15:55:54;;;;;;;9.70;5.30;;;;;;;-128.00;-1.00;-1.00;263844;1276;1002615;-86
2023/01/11 16:02:19;;;;;;;11.20;6.40;;;;;;;-128.00;-1.00;-1.00;263700;1276;1002909;-84
2023/01/11 16:08:38;;;;;;;12.50;5.70;;;;;;;-128.00;-1.00;-1.00;263340;1279;1002616;-83
2023/01/11 16:15:22;;;;;;;13.00;6.40;;;;;;;-128.00;-1.00;-1.00;263183;1279;1002660;-83
2023/01/11 16:21:49;;;;;;;11.30;6.60;;;;;;;-128.00;-1.00;-1.00;262839;1279;1003164;-83
2023/01/11 16:28:08;;;;;;;15.40;7.30;;;;;;;-128.00;-1.00;-1.00;263468;1277;1003498;-84
2023/01/11 16:34:15;;;;;;;13.60;7.60;;;;;;;-128.00;-1.00;-1.00;263330;1280;1002209;-83
2023/01/11 16:40:27;;;;;;;16.70;7.20;;;;;;;-128.00;-1.00;-1.00;262840;1279;1002256;-88
2023/01/11 16:46:35;;;;;;;12.70;6.70;;;;;;;-128.00;-1.00;-1.00;263852;1279;1002382;-86
2023/01/11 16:53:00;;;;;;;12.30;7.20;;;;;;;-128.00;-1.00;-1.00;263698;1278;1002322;-83
2023/01/11 16:59:26;;;;;;;14.30;7.20;;;;;;;-128.00;-1.00;-1.00;262926;1273;1002883;-87
2023/01/11 17:05:29;;;;;;;14.50;7.40;;;;;;;-128.00;-1.00;-1.00;263471;1279;1003010;-81
2023/01/11 17:11:55;;;;;;;16.30;8.10;;;;;;;-128.00;-1.00;-1.00;262951;1276;1002558;-82
2023/01/11 17:18:02;;;;;;;13.30;6.90;;;;;;;-128.00;-1.00;-1.00;263340;1277;1004191;-85
2023/01/11 17:24:11;;;;;;;13.90;7.60;;;;;;;-128.00;-1.00;-1.00;262924;1280;1002393;-85
2023/01/11 17:30:20;;;;;;;15.70;8.20;;;;;;;-128.00;-1.00;-1.00;262976;1278;1004434;-83
2023/01/11 17:36:23;;;;;;;13.50;7.40;;;;;;;-128.00;-1.00;-1.00;263856;1276;1002526;-81
2023/01/11 17:48:57;;;;;;;18.40;7.50;;;;;;;-128.00;-1.00;-1.00;262720;1275;1002903;-81
2023/01/11 17:55:17;;;;;;;17.00;9.00;;;;;;;-128.00;-1.00;-1.00;262430;1273;1002387;-80
2023/01/11 18:01:22;;;;;;;14.40;8.30;;;;;;;-128.00;-1.00;-1.00;263175;1279;1002384;-81
2023/01/11 18:07:34;;;;;;;20.00;10.20;;;;;;;-128.00;-1.00;-1.00;262806;1273;1002614;-82
2023/01/11 18:13:37;;;;;;;17.40;9.50;;;;;;;-128.00;-1.00;-1.00;262640;1279;1002925;-82
2023/01/11 18:19:41;;;;;;;19.90;10.50;;;;;;;-128.00;-1.00;-1.00;262748;1279;1002732;-81
2023/01/11 18:25:48;;;;;;;22.00;10.70;;;;;;;-128.00;-1.00;-1.00;262677;1276;1004457;-84
2023/01/11 18:32:00;;;;;;;17.50;9.90;;;;;;;-128.00;-1.00;-1.00;262525;1279;1002796;-84
2023/01/11 18:38:18;;;;;;;22.10;11.70;;;;;;;-128.00;-1.00;-1.00;262745;1273;1002890;-81
2023/01/11 18:44:24;;;;;;;24.60;11.70;;;;;;;-128.00;-1.00;-1.00;262798;1273;1002323;-82
2023/01/11 18:50:33;;;;;;;22.60;12.20;;;;;;;-128.00;-1.00;-1.00;262732;1276;1002563;-82
2023/01/11 18:56:36;;;;;;;19.00;10.70;;;;;;;-128.00;-1.00;-1.00;262934;1274;1002668;-81
2023/01/11 19:02:42;;;;;;;23.90;12.10;;;;;;;-128.00;-1.00;-1.00;263035;1273;1003807;-82
2023/01/11 19:08:47;;;;;;;25.10;12.20;;;;;;;-128.00;-1.00;-1.00;263136;1279;1003990;-81
2023/01/11 19:14:52;;;;;;;23.20;12.70;;;;;;;-128.00;-1.00;-1.00;262770;1274;1002466;-82
2023/01/11 19:21:05;;;;;;;31.00;15.50;;;;;;;-128.00;-1.00;-1.00;262555;1276;1003186;-86
2023/01/11 19:27:17;;;;;;;33.40;15.40;;;;;;;-128.00;-1.00;-1.00;262567;1276;1002466;-83
2023/01/11 19:33:33;;;;;;;30.30;15.80;;;;;;;-128.00;-1.00;-1.00;263585;1276;1002595;-91
2023/01/11 19:39:38;;;;;;;30.30;14.30;;;;;;;-128.00;-1.00;-1.00;263930;1279;1002751;-87
2023/01/11 19:45:56;;;;;;;29.10;15.20;;;;;;;-128.00;-1.00;-1.00;263248;1279;1003629;-88
2023/01/11 19:52:00;;;;;;;33.10;14.70;;;;;;;-128.00;-1.00;-1.00;263297;1279;1002558;-88
2023/01/11 19:58:10;;;;;;;30.80;16.10;;;;;;;-128.00;-1.00;-1.00;264154;1279;1002537;-88
2023/01/11 20:04:17;;;;;;;28.60;15.20;;;;;;;-128.00;-1.00;-1.00;264607;1279;1002744;-88
2023/01/11 20:10:23;;;;;;;;;;;;;;;-128.00;-1.00;-1.00;265296;1279;1002269;-85
2023/01/11 20:16:26;;;;;;;31.70;16.90;;;;;;;-136.56;39.40;47649.96;270533;1273;1002711;-86
2023/01/11 20:22:30;;;;;;;34.90;18.30;;;;;;;-128.00;-1.00;-1.00;268553;1277;1003400;-85
2023/01/11 20:28:39;;;;;;;30.80;16.80;;;;;;;-128.00;-1.00;-1.00;268383;1279;1002585;-89
2023/01/11 20:34:51;;;;;;;32.90;17.40;;;;;;;-128.00;-1.00;-1.00;264361;1279;1002417;-89
2023/01/11 20:47:39;;;;;;;33.40;17.40;;;;;;;-128.00;-1.00;-1.00;263100;1279;1002901;-87
2023/01/11 20:53:46;;;;;;;35.10;18.50;;;;;;;-128.00;-1.00;-1.00;263443;1279;1002992;-90
2023/01/11 20:59:55;;;;;;;33.20;17.40;;;;;;;-128.00;-1.00;-1.00;263742;1279;1005508;-89
2023/01/11 21:06:19;;;;;;;32.40;18.00;;;;;;;-128.00;-1.00;-1.00;264119;1279;1003075;-89
2023/01/11 21:12:27;;;;;;;37.50;19.00;;;;;;;-128.00;-1.00;-1.00;265257;1279;1003472;-89
2023/01/11 21:18:34;;;;;;;37.70;19.70;;;;;;;-128.00;-1.00;-1.00;264399;1279;1003805;-89
2023/01/11 21:24:39;;;;;;;36.40;18.70;;;;;;;-128.00;-1.00;-1.00;264899;1276;1002624;-90
2023/01/11 21:30:43;;;;;;;38.10;20.00;;;;;;;-128.00;-1.00;-1.00;265050;1279;1002210;-89
2023/01/11 21:36:47;;;;;;;38.40;19.30;;;;;;;-128.00;-1.00;-1.00;264592;1279;1002408;-89
2023/01/11 21:42:53;;;;;;;36.50;19.40;;;;;;;-128.00;-1.00;-1.00;263476;1279;1002818;-89
2023/01/11 21:49:22;;;;;;;37.90;19.10;;;;;;;-128.00;-1.00;-1.00;263680;1274;1002288;-88
2023/01/11 21:55:28;;;;;;;39.50;19.60;;;;;;;-128.00;-1.00;-1.00;264346;1279;1002659;-89
2023/01/11 22:01:33;;;;;;;34.90;18.90;;;;;;;-128.00;-1.00;-1.00;263897;1276;1002946;-92
2023/01/11 22:07:39;;;;;;;39.50;20.10;;;;;;;-128.00;-1.00;-1.00;262523;1279;1002802;-86
2023/01/11 22:13:42;;;;;;;37.10;19.10;;;;;;;-128.00;-1.00;-1.00;262570;1279;1002429;-85
2023/01/11 22:19:45;;;;;;;39.70;19.40;;;;;;;-128.00;-1.00;-1.00;262643;1279;1002665;-83
2023/01/11 22:25:53;;;;;;;34.60;19.20;;;;;;;-128.00;-1.00;-1.00;263258;1273;1003994;-85
2023/01/11 22:32:01;;;;;;;39.50;20.80;;;;;;;-128.00;-1.00;-1.00;262944;1279;1002658;-86
2023/01/11 22:38:05;;;;;;;40.60;20.40;;;;;;;-128.00;-1.00;-1.00;262909;1279;1002605;-87
2023/01/11 22:44:11;;;;;;;42.50;20.30;;;;;;;-128.00;-1.00;-1.00;263340;1279;1003044;-84
2023/01/11 22:50:15;;;;;;;39.80;20.40;;;;;;;-128.00;-1.00;-1.00;262419;1279;1002332;-84
2023/01/11 22:56:20;;;;;;;35.70;17.50;;;;;;;-128.00;-1.00;-1.00;262564;1279;1002679;-84
2023/01/11 23:02:24;;;;;;;33.40;18.00;;;;;;;-128.00;-1.00;-1.00;262304;1279;1003860;-83
2023/01/11 23:08:39;;;;;;;33.00;17.10;;;;;;;-128.00;-1.00;-1.00;262557;1279;1003171;-83
2023/01/11 23:14:42;;;;;;;33.40;17.60;;;;;;;-128.00;-1.00;-1.00;262427;1274;1003525;-85
2023/01/11 23:20:48;;;;;;;29.40;16.10;;;;;;;-128.00;-1.00;-1.00;262300;1279;1002537;-85
2023/01/11 23:26:51;;;;;;;29.70;17.00;;;;;;;-128.00;-1.00;-1.00;262146;1274;1003477;-85
2023/01/11 23:32:54;;;;;;;34.60;17.20;;;;;;;-128.00;-1.00;-1.00;262208;1279;1002720;-85
2023/01/11 23:39:05;;;;;;;30.40;17.40;;;;;;;-128.00;-1.00;-1.00;262619;1279;1002584;-86
2023/01/11 23:45:44;;;;;;;31.60;16.20;;;;;;;-128.00;-1.00;-1.00;263377;1279;1002308;-88
2023/01/11 23:51:47;;;;;;;31.70;16.50;;;;;;;-128.00;-1.00;-1.00;263799;1279;1003127;-85
2023/01/11 23:58:07;;;;;;;36.80;18.20;;;;;;;-128.00;-1.00;-1.00;263045;1279;1002604;-84
